createdAt,value
2023-06-07T02:19:56.474Z,205.45
2023-06-07T05:02:27.908Z,199.60
2023-06-07T05:06:32.334Z,200.85
2023-06-07T05:10:35.886Z,200.32
2023-06-07T05:14:41.526Z,200.20
2023-06-07T05:18:47.565Z,198.93
2023-06-07T05:22:50.621Z,194.43
2023-06-07T05:26:53.592Z,197.60
2023-06-07T05:30:57.996Z,199.27
2023-06-07T05:35:01.143Z,200.75
2023-06-07T05:39:04.359Z,198.87
2023-06-07T05:43:07.503Z,194.83
2023-06-07T05:47:12.062Z,199.60
2023-06-07T05:51:15.364Z,200.60
2023-06-07T05:55:18.338Z,199.40
2023-06-07T05:59:21.472Z,198.90
2023-06-07T06:03:26.947Z,200.05
2023-06-07T06:07:30.069Z,197.57
2023-06-07T06:11:33.370Z,197.75
2023-06-07T06:15:37.126Z,197.82
2023-06-07T06:19:42.733Z,197.63
2023-06-07T06:23:45.784Z,194.35
2023-06-07T06:27:48.979Z,193.20
2023-06-07T06:31:52.101Z,197.20
2023-06-07T06:35:56.454Z,197.20
2023-06-07T06:40:00.024Z,197.45
2023-06-07T06:44:04.184Z,196.40
2023-06-07T06:48:08.061Z,198.45
2023-06-07T06:52:12.475Z,198.95
2023-06-07T06:56:16.107Z,199.20
2023-06-07T07:00:20.219Z,199.05
2023-06-07T07:04:23.451Z,201.60
2023-06-07T07:08:28.179Z,201.45
2023-06-07T07:12:31.283Z,201.70
2023-06-07T07:16:36.919Z,201.57
2023-06-07T07:20:41.766Z,200.90
2023-06-07T07:24:46.590Z,196.75
2023-06-07T07:28:49.712Z,200.30
2023-06-07T07:32:52.845Z,199.70
2023-06-07T07:36:58.629Z,199.87
2023-06-07T07:41:02.999Z,200.40
2023-06-07T07:45:06.839Z,199.00
2023-06-07T07:49:10.559Z,199.40
2023-06-07T07:53:14.314Z,197.27
2023-06-07T07:57:18.978Z,195.80
2023-06-07T08:01:22.973Z,193.57
2023-06-07T08:05:25.963Z,196.30
2023-06-07T08:09:29.003Z,195.90
2023-06-07T08:13:33.360Z,195.90
2023-06-07T08:17:36.393Z,196.20
2023-06-07T08:21:39.646Z,196.03
2023-06-07T08:25:42.953Z,197.77
2023-06-07T08:29:47.266Z,198.02
2023-06-07T08:33:50.772Z,198.07
2023-06-07T08:37:53.835Z,197.30
2023-06-07T08:41:57.437Z,197.38
2023-06-07T08:46:04.670Z,199.70
2023-06-07T08:50:13.704Z,202.15
2023-06-07T08:54:19.867Z,199.77
2023-06-07T08:58:25.912Z,198.00
2023-06-07T09:02:30.612Z,198.80
2023-06-07T09:06:35.540Z,196.53
2023-06-07T09:10:38.592Z,198.80
2023-06-07T09:14:42.266Z,199.73
2023-06-07T09:18:48.712Z,199.55
2023-06-07T09:23:04.184Z,199.40
2023-06-07T09:27:09.194Z,199.00
2023-06-07T09:31:12.432Z,200.60
2023-06-07T09:35:18.964Z,198.70
2023-06-07T09:39:23.324Z,200.10
2023-06-07T09:43:26.335Z,199.97
2023-06-07T09:47:29.652Z,200.47
2023-06-07T09:51:42.440Z,200.45
2023-06-07T09:55:45.445Z,200.98
2023-06-07T09:59:59.494Z,200.55
2023-06-07T10:04:03.750Z,199.85
2023-06-07T10:08:10.540Z,201.85
2023-06-07T10:12:15.613Z,201.05
2023-06-07T10:16:20.044Z,201.13
2023-06-07T10:20:26.904Z,201.70
2023-06-07T10:24:34.839Z,204.35
2023-06-07T10:28:43.007Z,203.80
2023-06-07T10:32:48.818Z,203.77
2023-06-07T10:36:51.982Z,201.35
2023-06-07T10:40:58.628Z,205.77
2023-06-07T10:45:01.828Z,203.80
2023-06-07T10:49:05.435Z,206.75
2023-06-07T10:53:13.150Z,207.30
2023-06-07T10:57:33.321Z,206.85
2023-06-07T11:01:36.584Z,204.00
2023-06-07T11:06:07.649Z,208.73
2023-06-07T11:10:35.932Z,209.20
2023-06-07T11:14:40.387Z,209.70
2023-06-07T11:19:01.608Z,208.50
2023-06-07T11:23:20.611Z,209.10
2023-06-07T11:27:23.998Z,207.10
2023-06-07T11:31:28.511Z,209.35
2023-06-07T11:35:32.916Z,208.73
2023-06-07T11:39:36.071Z,209.15
2023-06-07T11:43:39.174Z,208.70
2023-06-07T11:47:43.518Z,209.60
2023-06-07T11:51:50.904Z,209.20
2023-06-07T11:55:57.111Z,208.82
2023-06-07T12:00:00.340Z,207.83
2023-06-07T12:04:04.988Z,206.27
2023-06-07T12:08:12.036Z,208.50
2023-06-07T12:12:16.796Z,211.20
2023-06-07T12:16:22.233Z,208.88
2023-06-07T12:20:29.062Z,203.45
2023-06-07T12:24:37.769Z,204.53
2023-06-07T12:28:43.302Z,198.75
2023-06-07T12:36:51.925Z,210.43
2023-06-07T12:40:55.074Z,201.83
2023-06-07T12:44:58.180Z,194.05
2023-06-07T12:49:01.286Z,201.50
2023-06-07T12:53:05.737Z,207.05
2023-06-07T12:57:09.472Z,209.60
2023-06-07T13:01:12.692Z,208.17
2023-06-07T13:05:16.181Z,209.27
2023-06-07T13:09:21.448Z,210.88
2023-06-07T13:13:24.614Z,208.90
2023-06-07T13:17:27.731Z,208.95
2023-06-07T13:21:31.179Z,210.77
2023-06-07T13:25:35.777Z,211.45
2023-06-07T13:29:39.452Z,210.93
2023-06-07T13:33:43.158Z,209.47
2023-06-07T13:37:46.332Z,210.70
2023-06-07T13:41:51.203Z,209.15
2023-06-07T13:45:54.497Z,209.37
2023-06-07T13:49:57.637Z,209.70
2023-06-07T13:54:00.620Z,207.03
2023-06-07T13:58:04.973Z,204.07
2023-06-07T14:02:11.174Z,215.50
2023-06-07T14:06:14.193Z,209.80
2023-06-07T14:10:17.471Z,206.50
2023-06-07T14:14:22.263Z,207.27
2023-06-07T14:18:25.220Z,209.15
2023-06-07T14:22:28.363Z,211.65
2023-06-07T14:26:31.405Z,211.00
2023-06-07T14:30:35.879Z,209.30
2023-06-07T14:34:38.869Z,210.90
2023-06-07T14:38:41.842Z,200.05
2023-06-07T14:42:44.805Z,199.27
2023-06-07T14:46:49.139Z,204.40
2023-06-07T14:50:52.089Z,218.10
2023-06-07T14:54:55.307Z,217.83
2023-06-07T14:58:58.383Z,217.13
2023-06-07T15:03:02.814Z,218.65
2023-06-07T15:07:06.837Z,218.30
2023-06-07T15:11:09.905Z,219.95
2023-06-07T15:15:15.777Z,220.60
2023-06-07T15:19:20.154Z,221.20
2023-06-07T15:23:23.260Z,220.40
2023-06-07T15:27:26.299Z,222.50
2023-06-07T15:31:29.308Z,223.60
2023-06-07T15:35:33.678Z,219.30
2023-06-07T15:39:36.633Z,223.20
2023-06-07T15:43:39.651Z,224.05
2023-06-07T15:47:42.756Z,222.00
2023-06-07T15:51:47.485Z,223.35
2023-06-07T15:55:50.526Z,216.50
2023-06-07T15:59:53.533Z,208.50
2023-06-07T16:03:57.218Z,205.85
2023-06-07T16:08:07.207Z,208.25
2023-06-07T16:12:15.955Z,222.17
2023-06-07T16:16:19.298Z,227.00
2023-06-07T16:20:22.951Z,227.02
2023-06-07T16:24:29.304Z,223.80
2023-06-07T16:28:32.616Z,229.00
2023-06-07T16:32:35.954Z,231.50
2023-06-07T16:36:40.073Z,227.05
2023-06-07T16:40:44.834Z,227.65
2023-06-07T16:44:48.158Z,230.87
2023-06-07T16:48:51.476Z,228.90
2023-06-07T16:52:54.830Z,230.30
2023-06-07T16:57:00.245Z,228.65
2023-06-07T17:01:03.255Z,222.95
2023-06-07T17:05:07.088Z,223.40
2023-06-07T17:09:10.182Z,217.70
2023-06-07T17:13:14.552Z,219.70
2023-06-07T17:17:17.586Z,226.90
2023-06-07T17:21:20.703Z,226.80
2023-06-07T21:04:35.953Z,206.65
2023-06-07T21:08:39.308Z,202.83
2023-06-07T21:12:42.351Z,212.13
2023-06-07T21:16:48.538Z,210.70
2023-06-07T21:20:51.742Z,209.33
2023-06-07T21:24:54.755Z,208.80
2023-06-07T21:28:57.751Z,208.77
2023-06-07T21:33:04.725Z,211.13
2023-06-07T21:37:08.024Z,208.55
2023-06-07T21:41:11.184Z,210.35
2023-06-07T21:45:14.180Z,211.45
2023-06-07T21:49:18.585Z,211.00
2023-06-07T21:53:21.572Z,210.60
2023-06-07T21:57:25.494Z,213.27
2023-06-07T22:01:28.582Z,213.30
2023-06-07T22:05:33.019Z,213.30
2023-06-07T22:09:36.625Z,211.97
2023-06-07T22:13:40.624Z,209.60
2023-06-07T22:17:45.003Z,211.10
2023-06-07T22:21:49.683Z,212.50
2023-06-07T22:25:53.704Z,211.90
2023-06-07T22:29:58.695Z,210.77
2023-06-07T22:34:04.094Z,209.60
2023-06-07T22:38:13.335Z,211.40
2023-06-07T22:42:16.732Z,213.05
2023-06-07T22:46:19.746Z,213.18
2023-06-07T22:50:22.935Z,212.30
2023-06-07T22:54:28.761Z,212.20
2023-06-07T22:58:32.077Z,211.60
